Time;durP1;ratioP1;P1;durP2;ratioP2;P2;SDS_P1;SDS_P2;PMS_P1;PMS_P2;Temp;Humidity;BMP_temperature;BMP_pressure;BME280_temperature;BME280_humidity;BME280_pressure;Samples;Min_cycle;Max_cycle;Signal;HPM_P1;HPM_P2
2022/01/21 00:02:30;;;;;;;2.37;0.90;;;;;;;-2.60;91.37;100658.06;5115946;56;1136935;-71
2022/01/21 00:07:36;;;;;;;7.47;1.80;;;;;;;-2.60;91.37;100658.06;5105722;56;1136865;-73
2022/01/21 00:12:42;;;;;;;1.83;0.87;;;;;;;-2.61;91.82;100652.47;5101169;57;1136964;-71
2022/01/21 00:17:48;;;;;;;1.90;1.30;;;;;;;-2.66;89.52;100653.00;5089959;57;1137134;-72
2022/01/21 00:33:40;;;;;;;4.20;1.47;;;;;;;-2.62;89.54;100668.45;5095492;56;1136955;-71
2022/01/21 00:38:47;;;;;;;3.93;0.60;;;;;;;-2.62;89.13;100667.59;5077635;57;1136971;-72
2022/01/21 00:43:54;;;;;;;1.43;0.97;;;;;;;-2.64;88.53;100661.59;5124503;57;1136967;-70
2022/01/21 00:49:01;;;;;;;5.53;0.70;;;;;;;-2.61;88.93;100661.53;5165393;56;1136983;-73
2022/01/21 00:54:07;;;;;;;10.60;1.03;;;;;;;-2.62;88.86;100653.35;5125313;56;1137000;-73
2022/01/21 00:59:13;;;;;;;1.30;1.03;;;;;;;-2.61;89.48;100657.20;5081387;57;1139091;-73
2022/01/21 01:04:19;;;;;;;4.47;1.40;;;;;;;-2.58;88.82;100662.73;5081455;57;1136982;-74
2022/01/21 01:09:25;;;;;;;4.50;1.30;;;;;;;-2.61;88.96;100657.20;5081291;57;1136925;-71
2022/01/21 01:19:59;;;;;;;2.63;1.43;;;;;;;-2.54;88.78;100667.82;5081318;57;1137188;-71
2022/01/21 01:30:32;;;;;;;4.80;1.20;;;;;;;-2.41;88.94;100669.70;5081192;57;1134969;-73
2022/01/21 01:35:39;;;;;;;9.60;2.33;;;;;;;-2.37;89.25;100679.55;5081398;57;1134944;-70
2022/01/21 01:40:51;;;;;;;4.03;1.27;;;;;;;-2.36;89.50;100666.57;5081111;57;1134860;-71
2022/01/21 01:51:17;;;;;;;;;;;;;;;-2.42;89.76;100685.27;5085161;57;1134888;-73
2022/01/21 01:56:27;;;;;;;3.70;2.00;;;;;;;-2.41;90.00;100689.12;5161898;56;972194;-72
2022/01/21 02:01:35;;;;;;;2.10;1.30;;;;;;;-2.37;89.98;100689.91;5165325;56;1132767;-72
2022/01/21 02:06:40;;;;;;;2.80;1.00;;;;;;;-2.31;90.90;100698.86;5165222;56;1132716;-72
2022/01/21 02:11:47;;;;;;;3.13;1.17;;;;;;;-2.26;91.24;100708.20;5165283;56;1132720;-73
2022/01/21 02:22:06;;;;;;;3.37;1.00;;;;;;;-2.09;91.81;100705.23;5135263;56;1136928;-71
2022/01/21 02:27:12;;;;;;;3.90;1.30;;;;;;;-2.00;91.97;100705.49;5165329;56;1137039;-72
2022/01/21 02:32:20;;;;;;;1.47;1.10;;;;;;;-1.94;91.54;100710.52;5165294;56;1137138;-73
2022/01/21 02:37:26;;;;;;;2.03;0.80;;;;;;;-1.91;91.61;100714.33;5165077;56;1136976;-72
2022/01/21 02:42:32;;;;;;;2.92;1.22;;;;;;;-1.89;91.48;100716.00;5190246;57;1136962;-71
2022/01/21 02:47:38;;;;;;;3.00;1.20;;;;;;;-1.87;91.59;100706.45;5190267;57;1137006;-71
2022/01/21 02:53:07;;;;;;;6.33;1.13;;;;;;;-1.86;91.81;100720.27;5163079;57;1137014;-70
2022/01/21 02:57:52;;;;;;;7.53;1.80;;;;;;;-1.85;92.01;100729.75;5089046;57;1136997;-70
2022/01/21 03:02:58;;;;;;;6.97;3.27;;;;;;;-1.92;92.47;100717.37;5094919;58;1137046;-72
2022/01/21 03:08:04;;;;;;;1.80;1.23;;;;;;;-1.80;92.40;100736.52;5094627;58;1137058;-71
2022/01/21 03:13:09;;;;;;;4.73;1.20;;;;;;;-1.78;92.75;100735.19;5094436;57;1136898;-70
2022/01/21 03:18:16;;;;;;;9.43;1.10;;;;;;;-1.80;93.36;100731.33;5094594;58;1137241;-71
2022/01/21 03:23:24;;;;;;;5.57;1.50;;;;;;;-1.79;93.90;100740.81;5105746;58;1137090;-70
2022/01/21 03:28:30;;;;;;;6.37;1.33;;;;;;;-1.78;94.25;100736.04;5105770;57;1136993;-70
2022/01/21 03:33:37;;;;;;;5.53;1.87;;;;;;;-1.80;94.15;100736.52;5105722;57;1136965;-72
2022/01/21 03:38:44;;;;;;;2.93;0.83;;;;;;;-1.85;94.61;100744.02;5104321;57;1136851;-71
2022/01/21 03:43:51;;;;;;;5.63;1.13;;;;;;;-1.86;94.77;100759.16;5072197;57;1137002;-70
2022/01/21 03:48:57;;;;;;;8.40;0.80;;;;;;;-1.88;95.56;100757.89;5072080;57;1136983;-71
2022/01/21 03:54:05;;;;;;;10.43;1.67;;;;;;;-1.91;95.63;100780.42;5111078;56;1137206;-72
2022/01/21 03:59:11;;;;;;;4.63;0.60;;;;;;;-1.95;95.91;100766.67;5155795;56;1139311;-71
2022/01/21 04:04:17;;;;;;;3.07;0.87;;;;;;;-2.00;96.69;100758.17;5155828;56;1136629;-69
2022/01/21 04:09:23;;;;;;;3.13;0.60;;;;;;;-2.03;97.19;100767.30;5155800;56;1136914;-72
2022/01/21 04:14:32;;;;;;;8.00;1.10;;;;;;;-2.05;97.67;100770.38;5155891;56;1137197;-70
2022/01/21 04:19:38;;;;;;;2.23;0.80;;;;;;;-2.10;97.89;100776.08;5155937;56;1137041;-71
2022/01/21 04:24:48;;;;;;;3.77;0.70;;;;;;;-2.13;98.26;100780.03;5155796;56;1137180;-71
2022/01/21 04:29:54;;;;;;;4.00;1.00;;;;;;;-2.18;99.37;100776.70;5155928;56;1136977;-72
2022/01/21 04:35:01;;;;;;;5.80;0.88;;;;;;;-2.20;100.00;100782.36;5155640;56;1136878;-69
2022/01/21 04:40:12;;;;;;;4.80;1.23;;;;;;;-2.22;100.00;100775.06;5160836;56;1139247;-72
2022/01/21 04:50:53;;;;;;;9.07;1.50;;;;;;;-2.25;100.00;100787.62;5190575;57;1141188;-71
2022/01/21 04:55:50;;;;;;;1.80;1.25;;;;;;;-2.27;100.00;100793.72;5119982;56;1137009;-69
2022/01/21 05:00:56;;;;;;;4.27;1.40;;;;;;;-2.31;100.00;100790.80;5105888;58;1136881;-71
2022/01/21 05:06:02;;;;;;;41.93;24.37;;;;;;;-2.32;100.00;100786.07;5105987;57;1136959;-70
2022/01/21 05:11:09;;;;;;;19.37;8.70;;;;;;;-2.34;100.00;100793.45;5105503;58;1141068;-71
2022/01/21 05:21:37;;;;;;;9.23;2.63;;;;;;;-2.37;100.00;100791.77;5105947;58;1136964;-71
2022/01/21 05:26:52;;;;;;;9.80;3.57;;;;;;;-2.35;100.00;100798.22;5105871;57;1136985;-72
2022/01/21 05:31:53;;;;;;;19.87;5.57;;;;;;;-2.38;100.00;100789.21;5105680;57;1136904;-70
2022/01/21 05:37:10;;;;;;;249.77;89.43;;;;;;;-2.41;100.00;100788.83;5105753;57;1139011;-69
2022/01/21 05:42:24;;;;;;;170.55;33.60;;;;;;;-2.43;100.00;100792.33;5096465;57;1143359;-71
2022/01/21 05:47:32;;;;;;;42.53;9.20;;;;;;;-2.45;100.00;100795.41;5074816;57;1141328;-71
2022/01/21 05:52:42;;;;;;;40.97;9.30;;;;;;;-2.46;100.00;100791.12;5096066;56;1141347;-71
2022/01/21 05:57:57;;;;;;;100.37;23.00;;;;;;;-2.47;100.00;100788.97;5164974;56;1141067;-70
2022/01/21 06:03:05;;;;;;;181.13;32.47;;;;;;;-2.45;100.00;100785.06;5165198;56;1145315;-71
2022/01/21 06:08:12;;;;;;;291.60;59.80;;;;;;;-2.45;100.00;100785.06;5164762;56;1145277;-71
2022/01/21 06:13:18;;;;;;;73.00;13.60;;;;;;;-2.43;100.00;100780.67;5165054;56;1145341;-69
2022/01/21 06:18:24;;;;;;;50.87;9.33;;;;;;;-2.43;100.00;100784.11;5165264;56;1143433;-70
2022/01/21 06:23:30;;;;;;;118.00;29.00;;;;;;;-2.43;100.00;100784.11;5165262;56;1141342;-71
2022/01/21 06:28:35;;;;;;;46.33;14.47;;;;;;;-2.43;100.00;100789.30;5165094;56;1145327;-70
2022/01/21 06:33:41;;;;;;;4.30;1.80;;;;;;;-2.40;100.00;100795.71;5161924;56;1143129;-70
2022/01/21 06:38:47;;;;;;;5.77;1.23;;;;;;;-2.35;100.00;100802.96;5154052;56;1139105;-69
2022/01/21 06:43:53;;;;;;;7.20;2.07;;;;;;;-2.25;100.00;100813.98;5168279;56;1139255;-71
2022/01/21 06:48:59;;;;;;;15.20;3.13;;;;;;;-2.16;100.00;100818.98;5180024;57;1139230;-71
2022/01/21 06:54:05;;;;;;;6.40;2.37;;;;;;;-2.08;100.00;100823.55;5158718;57;1141031;-70
2022/01/21 06:59:11;;;;;;;6.37;2.30;;;;;;;-1.99;100.00;100827.70;5110111;57;1139020;-73
2022/01/21 07:04:17;;;;;;;40.10;10.30;;;;;;;-1.94;100.00;100829.73;5092941;57;1138974;-72
2022/01/21 07:09:23;;;;;;;23.37;5.93;;;;;;;-1.88;100.00;100831.77;5076098;57;1143239;-70
2022/01/21 07:14:29;;;;;;;9.67;3.20;;;;;;;-1.82;100.00;100841.98;5051844;58;1141140;-71
2022/01/21 07:19:35;;;;;;;8.00;3.10;;;;;;;-1.75;100.00;100841.86;5098838;57;1138515;-73
2022/01/21 07:24:41;;;;;;;4.33;1.87;;;;;;;-1.69;100.00;100843.03;5059888;58;1139011;-71
2022/01/21 07:29:46;;;;;;;8.10;2.37;;;;;;;-1.62;100.00;100832.91;5051964;58;1139071;-70
2022/01/21 07:34:52;;;;;;;6.83;1.97;;;;;;;-1.59;100.00;100844.08;5052002;58;1139028;-72
2022/01/21 07:39:58;;;;;;;8.63;2.50;;;;;;;-1.58;100.00;100848.83;5060355;57;1139096;-71
2022/01/21 07:45:05;;;;;;;14.33;2.47;;;;;;;-1.52;100.00;100847.37;5096191;57;1139197;-71
2022/01/21 07:50:14;;;;;;;21.87;7.37;;;;;;;-1.42;100.00;100854.07;5099359;57;1141133;-71
2022/01/21 07:55:20;;;;;;;8.70;3.33;;;;;;;-1.29;100.00;100859.38;5103384;57;1141171;-70
2022/01/21 08:00:26;;;;;;;7.47;2.87;;;;;;;-1.18;98.37;100861.70;5098895;57;1139188;-72
2022/01/21 08:05:34;;;;;;;9.55;4.10;;;;;;;-1.01;97.76;100869.94;5084838;57;1136933;-74
2022/01/21 08:10:39;;;;;;;15.60;4.47;;;;;;;-0.85;98.09;100885.99;5058504;57;1136956;-72
2022/01/21 08:15:45;;;;;;;11.97;2.60;;;;;;;-0.85;96.15;100885.99;5099076;57;1139010;-72
2022/01/21 08:20:51;;;;;;;11.90;2.80;;;;;;;-0.84;96.31;100880.77;5099968;57;1139080;-73
2022/01/21 08:25:57;;;;;;;5.90;1.90;;;;;;;-0.81;96.25;100888.48;5102256;57;1139099;-71
2022/01/21 08:31:03;;;;;;;15.70;3.17;;;;;;;-0.79;96.51;100898.84;5095825;57;1137269;-71
2022/01/21 08:36:10;;;;;;;11.73;3.17;;;;;;;-0.77;96.47;100895.76;5069824;57;1139084;-71
2022/01/21 08:41:16;;;;;;;7.33;2.40;;;;;;;-0.76;96.11;100893.09;5058316;57;1139081;-71
2022/01/21 08:46:23;;;;;;;11.00;4.73;;;;;;;-0.73;95.92;100903.86;5073147;57;1136916;-72
2022/01/21 08:51:38;;;;;;;6.93;2.50;;;;;;;-0.74;95.56;100907.34;5155330;57;1139075;-73
2022/01/21 08:56:36;;;;;;;11.30;2.43;;;;;;;-0.77;95.52;100891.42;5082266;57;1134891;-71
2022/01/21 09:01:42;;;;;;;5.60;2.07;;;;;;;-0.74;95.76;100896.51;5109645;57;1137087;-73
2022/01/21 09:06:47;;;;;;;35.47;14.73;;;;;;;-0.66;95.98;100902.83;5116778;57;1135031;-73
2022/01/21 09:11:59;;;;;;;19.73;7.10;;;;;;;-0.62;94.74;100897.97;5116722;57;1139038;-72
2022/01/21 09:17:02;;;;;;;16.03;6.10;;;;;;;-0.46;95.56;100911.41;5110203;57;1136968;-71
2022/01/21 09:22:08;;;;;;;10.63;3.53;;;;;;;-0.33;94.03;100908.89;4989451;59;1137178;-70
2022/01/21 09:27:14;;;;;;;17.43;2.53;;;;;;;-0.24;92.59;100903.88;5070927;58;1136949;-71
2022/01/21 09:32:20;;;;;;;13.33;3.67;;;;;;;-0.17;92.87;100918.44;4990601;58;1137357;-71
2022/01/21 09:37:25;;;;;;;10.63;5.80;;;;;;;-0.13;92.43;100910.48;4990824;58;1136371;-71
2022/01/21 09:42:34;;;;;;;21.90;6.43;;;;;;;-0.06;92.58;100922.44;4957294;59;1136345;-71
2022/01/21 09:47:54;;;;;;;7.50;2.30;;;;;;;-0.02;92.10;100907.16;4988557;58;1136991;-71
2022/01/21 09:52:56;;;;;;;6.70;2.22;;;;;;;0.05;91.60;100909.13;5073340;57;1134939;-71
2022/01/21 09:58:02;;;;;;;13.37;3.00;;;;;;;0.09;91.58;100925.50;5055269;57;1132617;-71
2022/01/21 10:03:08;;;;;;;7.20;2.63;;;;;;;0.13;91.86;100918.87;5062518;57;1134895;-71
2022/01/21 10:08:16;;;;;;;3.73;2.37;;;;;;;0.20;90.86;100913.04;5063817;57;1132648;-71
2022/01/21 10:13:23;;;;;;;13.07;3.47;;;;;;;0.24;90.57;100911.61;5115498;57;1131011;-70
2022/01/21 10:18:28;;;;;;;12.87;3.13;;;;;;;0.35;90.96;100901.73;5074497;57;1132728;-70
2022/01/21 10:23:41;;;;;;;9.50;3.43;;;;;;;0.46;89.84;100908.39;5057912;57;1136962;-71
2022/01/21 10:28:52;;;;;;;9.65;2.33;;;;;;;0.55;88.87;100914.16;5100512;57;1134778;-70
2022/01/21 10:34:03;;;;;;;15.83;5.03;;;;;;;0.66;89.36;100913.83;5078687;57;1134896;-72
2022/01/21 10:39:17;;;;;;;6.53;3.30;;;;;;;0.78;89.49;100912.59;5131475;57;1136958;-73
2022/01/21 10:44:20;;;;;;;12.50;3.67;;;;;;;0.79;87.96;100923.41;5131496;57;1134843;-71
2022/01/21 10:49:27;;;;;;;7.63;3.73;;;;;;;0.75;86.91;100906.20;5074934;57;1137051;-73
2022/01/21 10:54:33;;;;;;;9.40;3.30;;;;;;;0.81;85.20;100906.00;5095290;57;1135176;-72
2022/01/21 11:00:06;;;;;;;9.73;2.00;;;;;;;0.86;85.82;100900.20;5131858;57;1134895;-71
2022/01/21 11:05:24;;;;;;;4.73;1.77;;;;;;;0.99;83.81;100888.04;5111401;57;1134905;-70
2022/01/21 11:10:46;;;;;;;10.63;3.73;;;;;;;1.10;82.75;100905.06;5113419;57;1135287;-71
2022/01/21 11:16:13;;;;;;;2.37;0.97;;;;;;;1.13;82.33;100911.03;5079753;57;1136409;-71
2022/01/21 11:21:20;;;;;;;5.00;2.53;;;;;;;1.15;80.87;100909.68;5120016;57;1135155;-71
2022/01/21 11:26:26;;;;;;;8.80;5.13;;;;;;;1.14;82.05;100917.95;5147072;57;1134870;-71
2022/01/21 11:31:33;;;;;;;14.90;6.90;;;;;;;1.11;81.79;100920.64;5148361;56;1134874;-72
2022/01/21 11:36:39;;;;;;;5.33;2.43;;;;;;;1.12;82.71;100927.56;5113384;57;1137090;-71
2022/01/21 11:41:45;;;;;;;9.35;3.45;;;;;;;1.04;79.80;100921.76;5070394;57;1134851;-72
2022/01/21 11:47:14;;;;;;;26.57;10.70;;;;;;;1.07;81.29;100915.61;5068993;57;1134901;-72
2022/01/21 11:52:18;;;;;;;17.40;5.10;;;;;;;1.24;82.04;100898.50;5054636;57;1138559;-72
2022/01/21 11:57:32;;;;;;;88.03;52.77;;;;;;;1.32;81.28;100901.72;5135109;57;1134833;-72
2022/01/21 12:02:38;;;;;;;8.07;3.20;;;;;;;1.32;81.28;100901.72;5083471;57;1137270;-72
2022/01/21 12:07:48;;;;;;;20.30;6.70;;;;;;;1.43;79.55;100898.73;5103076;57;1132725;-71
2022/01/21 12:13:03;;;;;;;29.07;10.70;;;;;;;1.52;79.04;100898.45;5080447;57;1134923;-71
2022/01/21 12:24:08;;;;;;;19.70;6.67;;;;;;;2.00;77.53;100888.46;5022363;58;1139019;-71
2022/01/21 12:29:19;;;;;;;30.15;11.55;;;;;;;2.04;75.73;100900.04;5130427;56;1136962;-71
2022/01/21 12:34:27;;;;;;;18.73;7.83;;;;;;;2.23;75.70;100900.67;5149239;57;1139092;-71
2022/01/21 12:39:48;;;;;;;25.50;10.67;;;;;;;2.14;76.45;100903.64;5148533;57;1137049;-71
2022/01/21 12:44:57;;;;;;;24.73;11.33;;;;;;;2.03;74.83;100908.77;5151096;57;1139021;-71
2022/01/21 12:50:25;;;;;;;21.20;8.07;;;;;;;1.87;75.73;100902.86;5148743;56;1139001;-70
2022/01/21 12:55:59;;;;;;;31.43;21.30;;;;;;;1.89;74.70;100900.59;5143891;56;1136934;-71
2022/01/21 13:01:08;;;;;;;16.70;7.37;;;;;;;1.95;75.65;100892.56;5099597;57;1139088;-70
2022/01/21 13:06:55;;;;;;;12.67;6.30;;;;;;;1.96;76.21;100896.02;5062744;57;1137177;-70
2022/01/21 13:12:06;;;;;;;15.33;5.17;;;;;;;1.90;76.41;100897.53;5072375;57;1136988;-71
2022/01/21 13:17:15;;;;;;;12.23;5.57;;;;;;;1.78;75.80;100894.92;5069263;57;1137188;-71
2022/01/21 13:22:28;;;;;;;17.07;6.13;;;;;;;1.63;76.04;100884.58;5132455;57;1136964;-71
2022/01/21 13:27:37;;;;;;;9.93;5.80;;;;;;;1.83;77.69;100883.03;5127343;57;1134887;-71
2022/01/21 13:32:43;;;;;;;12.13;5.97;;;;;;;2.38;77.79;100877.47;5139089;57;1133024;-71
2022/01/21 13:38:11;;;;;;;7.00;2.63;;;;;;;3.22;72.25;100871.93;5140379;57;1134892;-71
2022/01/21 13:43:21;;;;;;;14.60;5.70;;;;;;;3.88;69.76;100870.81;5166420;56;1132764;-70
2022/01/21 13:48:30;;;;;;;27.40;15.53;;;;;;;4.49;68.35;100867.55;5208350;56;1134900;-71
2022/01/21 13:53:41;;;;;;;14.43;7.07;;;;;;;4.87;69.13;100875.38;5127496;56;1137010;-71
2022/01/21 13:58:48;;;;;;;11.77;5.03;;;;;;;4.80;68.19;100878.73;5133179;57;1134329;-69
2022/01/21 14:03:57;;;;;;;10.82;6.08;;;;;;;4.75;66.06;100885.95;5108952;57;1134168;-72
2022/01/21 14:09:02;;;;;;;14.47;6.07;;;;;;;4.86;67.92;100880.22;5088211;57;1134378;-71
2022/01/21 14:14:11;;;;;;;35.77;19.47;;;;;;;4.75;68.75;100887.72;5090971;57;1132872;-71
2022/01/21 14:19:20;;;;;;;23.37;8.17;;;;;;;4.18;71.03;100886.91;5063237;57;1135283;-71
2022/01/21 14:24:26;;;;;;;12.20;6.43;;;;;;;3.56;73.28;100893.59;5098800;57;1136963;-71
2022/01/21 14:29:38;;;;;;;20.93;11.67;;;;;;;3.41;74.64;100904.23;5070328;57;1137024;-72
2022/01/21 14:34:44;;;;;;;28.53;11.43;;;;;;;2.82;76.80;100903.15;5084023;57;1139174;-71
2022/01/21 14:39:56;;;;;;;17.00;10.37;;;;;;;2.30;78.66;100895.61;5110462;57;1139021;-70
2022/01/21 14:45:20;;;;;;;34.17;14.30;;;;;;;1.98;80.45;100902.04;5086498;57;1139098;-71
2022/01/21 14:50:27;;;;;;;;;;;;;;;1.75;81.26;100893.72;5136525;57;1139097;-71
2022/01/21 14:55:38;;;;;;;15.43;7.17;;;;;;;1.48;82.95;100897.28;5130922;57;972145;-72
2022/01/21 15:00:46;;;;;;;17.33;7.80;;;;;;;1.21;84.35;100897.77;5133205;57;1134910;-71
2022/01/21 15:05:57;;;;;;;8.50;4.00;;;;;;;0.95;86.12;100888.18;5134756;57;1136388;-71
2022/01/21 15:11:55;;;;;;;8.77;4.70;;;;;;;0.80;87.00;100918.16;5109668;57;1134896;-71
2022/01/21 15:16:27;;;;;;;8.00;3.97;;;;;;;0.65;87.41;100918.19;5114130;57;1134921;-71
2022/01/21 15:21:33;;;;;;;9.90;4.50;;;;;;;0.51;88.51;100937.27;5076720;57;1135085;-71
2022/01/21 15:26:41;;;;;;;18.93;6.80;;;;;;;0.28;90.19;100950.11;5081567;57;1134919;-72
2022/01/21 15:31:47;;;;;;;29.93;13.57;;;;;;;0.28;90.19;100950.11;5108526;56;1136456;-70
2022/01/21 15:36:53;;;;;;;22.03;13.53;;;;;;;0.18;90.16;100951.23;5114659;56;1139238;-71
2022/01/21 15:42:00;;;;;;;12.18;6.03;;;;;;;0.09;91.02;100971.02;5119734;56;1139293;-70
2022/01/21 15:47:06;;;;;;;30.53;11.50;;;;;;;-0.02;89.28;100953.97;5110887;57;1136910;-70
2022/01/21 15:52:12;;;;;;;24.87;10.25;;;;;;;-0.05;89.42;100975.28;5101163;57;1141123;-71
2022/01/21 15:57:18;;;;;;;35.47;12.60;;;;;;;-0.12;89.33;100978.93;5189811;57;1141092;-71
2022/01/21 16:02:26;;;;;;;21.80;8.47;;;;;;;-0.14;88.61;100982.01;5190156;56;1140615;-71
2022/01/21 16:07:31;;;;;;;22.93;9.17;;;;;;;-0.20;87.13;100972.65;5136335;57;1139145;-71
2022/01/21 16:12:36;;;;;;;22.93;7.90;;;;;;;-0.24;85.99;100989.65;5156774;57;1139056;-72
2022/01/21 16:17:42;;;;;;;24.17;9.97;;;;;;;-0.25;85.18;100988.80;5123960;57;1139067;-71
2022/01/21 16:22:48;;;;;;;37.80;11.93;;;;;;;-0.25;84.44;100987.95;5135150;56;1139269;-72
2022/01/21 16:27:54;;;;;;;30.20;11.87;;;;;;;-0.29;83.42;100996.26;5129683;57;1141332;-71
2022/01/21 16:33:00;;;;;;;12.83;4.57;;;;;;;-0.30;83.59;101002.34;5128147;56;1141068;-71
2022/01/21 16:38:05;;;;;;;15.90;6.13;;;;;;;-0.30;80.45;101005.39;5144255;57;1139291;-71
2022/01/21 16:43:14;;;;;;;11.27;4.40;;;;;;;-0.26;81.33;101009.63;5118813;57;1137199;-72
2022/01/21 16:48:20;;;;;;;12.83;5.63;;;;;;;-0.24;80.61;101008.70;5148742;56;1137151;-72
2022/01/21 16:53:28;;;;;;;15.50;5.20;;;;;;;-0.17;80.73;101007.66;5125043;57;1136988;-74
2022/01/21 16:58:34;;;;;;;17.93;5.23;;;;;;;-0.10;81.37;101001.40;5134370;57;1136979;-72
2022/01/21 17:03:39;;;;;;;117.83;51.50;;;;;;;-0.06;81.57;100999.58;5131842;56;1136912;-72
2022/01/21 17:08:47;;;;;;;241.17;119.83;;;;;;;-0.06;81.96;100993.08;5094102;57;1141252;-71
2022/01/21 17:13:52;;;;;;;17.30;12.30;;;;;;;-0.06;81.78;100989.17;5104223;57;1143244;-71
2022/01/21 17:18:58;;;;;;;12.63;4.77;;;;;;;-0.07;81.79;100993.97;5165046;56;1139037;-72
2022/01/21 17:24:04;;;;;;;6.87;3.20;;;;;;;-0.07;82.49;100990.92;5165319;56;1137220;-73
2022/01/21 17:29:11;;;;;;;7.27;2.60;;;;;;;-0.06;81.14;100984.83;5165380;56;1134942;-71
2022/01/21 17:34:16;;;;;;;7.37;2.80;;;;;;;-0.03;81.41;100973.05;5165162;56;1134874;-71
2022/01/21 17:39:23;;;;;;;13.23;3.33;;;;;;;-0.01;81.06;100971.27;5165222;56;1134951;-72
2022/01/21 17:44:30;;;;;;;4.27;2.23;;;;;;;0.00;81.23;100978.63;5160487;56;1137103;-73
2022/01/21 17:49:38;;;;;;;5.47;2.60;;;;;;;-0.05;83.67;100966.19;5153597;56;1132776;-70
2022/01/21 17:54:45;;;;;;;9.63;3.10;;;;;;;-0.12;86.69;100956.83;5153656;56;1135000;-70
2022/01/21 17:59:51;;;;;;;14.27;3.47;;;;;;;-0.09;87.25;100961.51;5153624;56;1134840;-72
2022/01/21 18:04:57;;;;;;;11.67;3.43;;;;;;;-0.07;90.12;100947.17;5153822;56;1135019;-72
2022/01/21 18:10:09;;;;;;;7.47;3.43;;;;;;;-0.04;93.08;100929.75;5153554;56;1135016;-73
2022/01/21 18:15:10;;;;;;;8.77;3.90;;;;;;;-0.02;94.91;100923.21;5153526;56;1137110;-72
2022/01/21 18:20:17;;;;;;;11.63;3.23;;;;;;;0.03;94.76;100920.02;5154027;56;1137456;-73
2022/01/21 18:25:23;;;;;;;9.35;3.12;;;;;;;0.05;95.31;100918.23;5153864;56;1137252;-72
2022/01/21 18:30:29;;;;;;;5.13;2.37;;;;;;;0.08;95.50;100908.19;5152559;56;1135448;-72
2022/01/21 18:35:36;;;;;;;9.70;2.72;;;;;;;0.08;95.86;100905.14;5120209;57;1135072;-71
2022/01/21 18:40:41;;;;;;;10.20;3.00;;;;;;;0.05;96.52;100889.62;5131402;57;1134916;-73
2022/01/21 18:45:52;;;;;;;4.23;2.60;;;;;;;0.03;96.63;100899.66;5092545;57;1137092;-70
2022/01/21 18:50:56;;;;;;;8.80;2.53;;;;;;;-0.03;96.67;100900.26;5128769;56;1134791;-72
2022/01/21 18:56:03;;;;;;;12.53;4.50;;;;;;;-0.10;97.05;100894.81;5137077;56;1137102;-70
2022/01/21 19:01:11;;;;;;;15.23;3.57;;;;;;;-0.11;96.56;100906.09;5147607;57;1139273;-71
2022/01/21 19:06:17;;;;;;;13.40;4.70;;;;;;;-0.15;96.96;100907.07;5159769;57;1139063;-75
2022/01/21 19:11:24;;;;;;;8.67;2.60;;;;;;;-0.17;96.78;100912.79;5148615;57;1139103;-74
2022/01/21 19:16:30;;;;;;;16.15;4.70;;;;;;;-0.19;97.36;100900.72;5143667;57;1136859;-73
2022/01/21 19:21:36;;;;;;;10.90;3.10;;;;;;;-0.19;97.07;100898.13;5151017;57;1138982;-72
2022/01/21 19:27:05;;;;;;;10.77;4.10;;;;;;;-0.21;97.21;100896.86;5149318;57;1139281;-72
2022/01/21 19:31:59;;;;;;;12.87;3.37;;;;;;;-0.20;96.93;100889.47;5125286;57;1138871;-72
2022/01/21 19:37:05;;;;;;;22.37;4.47;;;;;;;-0.20;97.17;100886.02;5129085;56;1139099;-72
2022/01/21 19:42:11;;;;;;;11.47;4.23;;;;;;;-0.20;97.01;100897.27;5114447;57;1139323;-73
2022/01/21 19:47:21;;;;;;;11.00;3.20;;;;;;;-0.17;96.85;100904.98;5108360;57;1139047;-76
2022/01/21 19:52:24;;;;;;;10.30;2.93;;;;;;;-0.14;96.71;100904.87;5179204;57;1139172;-77
2022/01/21 19:57:39;;;;;;;5.70;2.07;;;;;;;-0.10;96.72;100899.16;5112553;57;1139348;-73
2022/01/21 20:13:18;;;;;;;10.53;4.00;;;;;;;-0.03;97.57;100899.41;5137950;56;1137061;-77
2022/01/21 20:18:24;;;;;;;10.13;2.77;;;;;;;-0.02;97.96;100888.11;5153133;57;1139319;-72
2022/01/21 20:23:32;;;;;;;3.37;2.30;;;;;;;0.00;98.02;100882.42;5140673;57;1139088;-75
2022/01/21 20:28:40;;;;;;;9.43;2.47;;;;;;;0.03;98.13;100884.05;5131197;56;1134908;-69
2022/01/21 20:33:49;;;;;;;12.07;2.70;;;;;;;0.05;97.86;100876.63;5143610;57;1135208;-68
2022/01/21 20:39:08;;;;;;;7.23;1.77;;;;;;;0.08;97.72;100879.14;5120167;56;1134827;-70
2022/01/21 20:44:19;;;;;;;10.27;1.73;;;;;;;0.09;97.90;100876.95;5133064;57;1132857;-70
2022/01/21 20:49:24;;;;;;;4.20;1.83;;;;;;;0.09;98.24;100866.55;5146537;57;1134769;-74
2022/01/21 20:54:30;;;;;;;3.87;1.67;;;;;;;0.08;98.70;100862.23;5091082;57;1132866;-72
2022/01/21 20:59:37;;;;;;;13.00;2.47;;;;;;;0.08;99.01;100868.73;5104867;57;1132956;-74
2022/01/21 21:04:42;;;;;;;5.60;1.97;;;;;;;0.10;99.38;100866.09;5075023;57;1135043;-73
2022/01/21 21:09:48;;;;;;;9.80;3.30;;;;;;;0.11;100.00;100871.70;5099698;57;1133102;-74
2022/01/21 21:14:58;;;;;;;24.43;12.47;;;;;;;0.15;100.00;100871.58;5084158;57;1134831;-74
2022/01/21 21:25:30;;;;;;;8.67;2.70;;;;;;;0.22;100.00;100851.42;5089943;57;1136965;-68
2022/01/21 21:32:01;;;;;;;8.20;5.20;;;;;;;0.24;100.00;100858.29;5092421;57;1134865;-74
2022/01/21 22:04:07;;;;;;;19.27;8.57;;;;;;;0.20;100.00;100906.09;4918893;59;974156;-74
2022/01/21 22:14:12;;;;;;;18.33;8.37;;;;;;;0.03;100.00;100902.26;4884979;59;1141598;-71
2022/01/21 23:01:15;;;;;;;49.90;15.63;;;;;;;0.18;100.00;100938.23;4979161;58;1141134;-75
2022/01/21 23:06:23;;;;;;;24.23;9.13;;;;;;;0.27;100.00;100942.75;4985302;58;1141127;-71
2022/01/21 23:11:28;;;;;;;30.97;12.80;;;;;;;0.37;100.00;100927.71;4998435;58;1139260;-75
2022/01/21 23:16:37;;;;;;;34.08;11.00;;;;;;;0.37;100.00;100917.31;4998306;58;1141151;-73
2022/01/21 23:21:42;;;;;;;43.83;16.30;;;;;;;0.27;100.00;100912.83;4998412;58;1141419;-70
2022/01/21 23:26:55;;;;;;;35.87;13.03;;;;;;;0.21;100.00;100927.75;4998549;58;1141825;-70
2022/01/21 23:31:58;;;;;;;50.10;19.07;;;;;;;0.22;100.00;100921.20;4998427;58;1141326;-73
2022/01/21 23:37:08;;;;;;;37.97;13.77;;;;;;;0.19;100.00;100926.48;4998263;58;1141359;-72
2022/01/21 23:42:14;;;;;;;26.40;10.57;;;;;;;0.19;100.00;100919.98;4998361;58;1141061;-72
2022/01/21 23:47:20;;;;;;;18.63;7.50;;;;;;;0.21;100.00;100909.55;4997761;58;1141250;-71
2022/01/21 23:52:27;;;;;;;11.50;4.67;;;;;;;0.17;100.00;100914.42;4998210;58;1139109;-70
2022/01/21 23:57:33;;;;;;;6.93;3.50;;;;;;;0.11;100.00;100913.31;5004649;58;1139406;-73
